Terminal Aerodrome Forecast
Issued by NWS Quad Cities IA IL

Home | Current Version | Previous Version | Text Only | Print | Product List | Glossary On
Versions: 1 2 3 4 5 6 7 8 9 10 11 12 13 14 15 16 17
000
FTUS43 KDVN 182000 AAA
TAFMLI
TAF AMD
KMLI 182040Z 1821/1918 34008KT P6SM OVC030
     FM182300 VRB03KT P6SM SKC
     FM191500 22008KT P6SM SCT150=

USA.gov is the U.S. government's official web portal to all federal, state and local government web resources and services.